Latest Weather Observations for Dunalley

IDT60901

Issued at 6:31 pm EST Wednesday 24 August 2016 (issued every 10 minutes, with the page automatically refreshed every 10 minutes)

About weather observations | Map of Hobart area stations | Latest observations for Hobart area | Other Formats
Station Details ID: 094254 Name: DUNALLEY (STROUD POINT) Lat: -42.90 Lon: 147.79 Height: 12.43 m
Data from the previous 72 hours. | See also: Recent months at Dunalley
Date/Time
EST
Temp
°C
App
Temp
°C
Dew
Point
°C
Rel
Hum
%
Delta-T
°C
Wind Press
QNH
hPa
Press
MSL
hPa
Rain since
9am
mm
Dir  Spd
km/h
Gust
km/h
Spd
kts
Gust
kts
24/06:30pm 8.8 6.3 3.6 70 2.2 WSW 6 9 3 5 1010.3 1010.3 0.0
24/06:00pm 7.6 5.3 2.9 72 2.0 WSW 4 6 2 3 1010.1 1010.1 0.0
24/05:30pm 8.0 5.2 3.1 71 2.1 WSW 7 9 4 5 1010.0 1010.0 0.0
24/05:00pm 9.4 5.5 3.4 66 2.6 SW 13 17 7 9 1009.8 1009.8 0.0
24/04:30pm 9.9 5.8 4.1 67 2.6 SW 15 17 8 9 1009.6 1009.6 0.0
24/04:00pm 10.8 7.9 4.5 65 2.8 SW 9 13 5 7 1009.6 1009.6 0.0
24/03:30pm 10.7 7.2 3.7 62 3.1 SW 11 13 6 7 1009.8 1009.8 0.0
24/03:00pm 10.7 6.9 3.7 62 3.1 SSW 13 15 7 8 1010.0 1010.0 0.0
24/02:30pm 9.6 5.6 4.8 72 2.1 SW 15 20 8 11 1010.3 1010.3 0.0
24/02:00pm 10.6 7.7 2.7 58 3.4 WSW 7 9 4 5 1010.2 1010.2 0.0
24/01:30pm 11.2 8.4 3.0 57 3.6 WSW 7 9 4 5 1010.4 1010.4 0.0
24/01:00pm 10.9 7.3 3.2 59 3.4 WSW 11 13 6 7 1010.6 1010.6 0.0
24/12:30pm 10.2 7.0 3.0 61 3.1 WSW 9 13 5 7 1011.0 1011.0 0.0
24/12:00pm 10.1 6.9 2.9 61 3.1 WSW 9 13 5 7 1011.5 1011.5 0.0
24/11:30am 10.7 6.1 3.7 62 3.1 WSW 17 20 9 11 1011.9 1011.9 0.0
24/11:00am 10.3 5.7 3.6 63 2.9 WSW 17 19 9 10 1012.2 1012.2 0.0
24/10:30am 10.1 5.0 3.2 62 3.0 WSW 19 22 10 12 1012.4 1012.4 0.0
24/10:00am 9.8 5.1 2.9 62 3.0 WNW 17 24 9 13 1012.6 1012.6 0.0
24/09:30am 9.4 4.1 2.9 64 2.8 WNW 20 26 11 14 1012.8 1012.8 0.0
24/09:00am 8.9 3.8 2.9 66 2.6 NW 19 24 10 13 1013.1 1013.1 0.0
24/08:30am 8.2 2.8 2.7 68 2.3 WNW 20 24 11 13 1013.3 1013.4 0.0
24/08:00am 7.2 2.3 2.3 71 2.0 NW 17 22 9 12 1013.2 1013.3 0.0
24/07:30am 6.8 2.3 2.1 72 1.9 NW 15 20 8 11 1013.3 1013.4 0.0
24/07:00am 6.3 1.4 1.8 73 1.8 NW 17 24 9 13 1012.9 1012.9 0.0
24/06:30am 6.4 1.5 1.9 73 1.8 NW 17 22 9 12 1012.7 1012.7 0.0
24/06:00am 6.6 1.3 2.1 73 1.8 NW 19 28 10 15 1012.7 1012.7 0.0
24/05:30am 6.4 1.5 2.1 74 1.7 NW 17 22 9 12 1012.6 1012.6 0.0
24/05:00am 6.4 1.9 2.1 74 1.8 NW 15 20 8 11 1012.7 1012.7 0.0
24/04:30am 6.3 1.4 1.8 73 1.8 WNW 17 24 9 13 1012.7 1012.7 0.0
24/04:00am 6.6 1.7 2.1 73 1.8 NW 17 22 9 12 1012.7 1012.7 0.0
24/03:30am 6.7 1.4 2.0 72 1.9 NW 19 26 10 14 1012.7 1012.7 0.0
24/03:00am 6.8 1.3 1.9 71 2.0 NW 20 28 11 15 1013.0 1013.0 0.0
24/02:30am 6.8 1.9 2.1 72 1.9 NW 17 24 9 13 1013.4 1013.5 0.0
24/02:00am 6.8 1.5 1.9 71 2.0 NW 19 26 10 14 1013.6 1013.7 0.0
24/01:30am 7.1 1.3 2.2 71 2.0 NW 22 28 12 15 1013.6 1013.7 0.0
24/01:00am 7.0 2.1 2.3 72 1.9 NW 17 24 9 13 1013.9 1014.0 0.0
24/12:30am 7.0 1.7 2.1 71 2.0 NW 19 22 10 12 1013.9 1014.0 0.0
24/12:00am 7.5 2.1 2.2 69 2.2 WNW 20 26 11 14 1014.0 1014.1 0.0
 
Date/Time
EST
Temp
°C
App
Temp
°C
Dew
Point
°C
Rel
Hum
%
Delta-T
°C
Wind Press
QNH
hPa
Press
MSL
hPa
Rain since
9am
mm
Dir  Spd
km/h
Gust
km/h
Spd
kts
Gust
kts
23/11:30pm 7.3 2.0 1.8 68 2.2 WNW 19 26 10 14 1014.1 1014.2 0.0
23/11:00pm 7.3 2.0 1.8 68 2.2 NW 19 26 10 14 1014.0 1014.1 0.0
23/10:30pm 7.4 2.5 1.7 67 2.3 NW 17 24 9 13 1014.2 1014.3 0.0
23/10:00pm 7.4 3.2 1.5 66 2.4 NW 13 20 7 11 1014.3 1014.4 0.0
23/09:30pm 7.5 3.3 1.4 65 2.5 NW 13 19 7 10 1014.4 1014.5 0.0
23/09:00pm 8.1 4.6 1.5 63 2.7 W 9 15 5 8 1014.5 1014.6 0.0
23/08:30pm 7.9 4.5 2.0 66 2.4 W 9 13 5 7 1014.6 1014.7 0.0
23/08:00pm 7.5 3.7 1.8 67 2.3 W 11 13 6 7 1014.5 1014.6 0.0
23/07:30pm 7.7 4.1 3.0 72 2.0 W 11 15 6 8 1014.4 1014.5 0.0
23/07:00pm 9.3 3.8 4.1 70 2.3 WSW 22 26 12 14 1014.2 1014.3 0.0
23/06:30pm 9.3 3.1 4.1 70 2.3 WSW 26 32 14 17 1014.1 1014.2 0.0
23/06:00pm 9.4 4.2 3.8 68 2.4 W 20 24 11 13 1014.0 1014.1 0.0
23/05:30pm 9.8 3.8 3.3 64 2.8 WSW 24 33 13 18 1013.6 1013.7 0.0
23/05:00pm 10.4 4.3 2.5 58 3.4 SW 24 30 13 16 1013.2 1013.3 0.0
23/04:30pm 10.4 3.6 3.2 61 3.1 SW 28 33 15 18 1012.9 1012.9 0.0
23/04:00pm 10.4 5.3 3.9 64 2.9 WSW 20 24 11 13 1012.7 1012.7 0.0
23/03:30pm 10.2 5.8 4.8 69 2.4 WSW 17 20 9 11 1012.8 1012.8 0.0
23/03:00pm 10.7 7.0 4.4 65 2.8 WSW 13 17 7 9 1012.9 1012.9 0.0
23/02:30pm 10.1 6.8 4.3 67 2.6 WSW 11 13 6 7 1012.8 1012.8 0.0
23/02:00pm 10.4 7.1 4.8 68 2.5 WSW 11 13 6 7 1012.8 1012.8 0.0
23/01:30pm 11.7 8.0 4.2 60 3.4 WSW 13 17 7 9 1012.8 1012.8 0.0
23/01:00pm 11.9 8.1 3.9 58 3.6 WSW 13 17 7 9 1012.9 1012.9 0.0
23/12:30pm 10.7 6.5 3.7 62 3.1 WSW 15 17 8 9 1013.1 1013.1 0.0
23/12:00pm 10.5 6.1 2.6 58 3.4 W 15 20 8 11 1013.3 1013.4 0.0
23/11:30am 11.0 6.6 2.8 57 3.5 W 15 20 8 11 1013.7 1013.8 0.0
23/11:00am 10.7 5.4 2.8 58 3.4 W 20 26 11 14 1013.9 1014.0 0.0
23/10:30am 10.4 5.2 2.5 58 3.4 W 19 24 10 13 1013.9 1014.0 0.0
23/10:00am 9.8 4.6 2.6 61 3.1 WNW 19 24 10 13 1013.9 1014.0 0.0
23/09:30am 9.3 4.1 2.2 61 3.0 WNW 19 26 10 14 1014.1 1014.2 0.0
23/09:00am 8.7 3.4 1.8 62 2.9 WNW 19 24 10 13 1014.1 1014.2 0.0
23/08:30am 8.1 3.6 1.9 65 2.6 WNW 15 20 8 11 1013.8 1013.9 0.0
23/08:00am 7.1 2.4 1.2 66 2.4 NNW 15 20 8 11 1013.8 1013.9 0.0
23/07:30am 6.5 1.0 0.8 67 2.2 NW 19 26 10 14 1013.6 1013.7 0.0
23/07:00am 6.1 1.0 0.6 68 2.1 NW 17 26 9 14 1013.3 1013.4 0.0
23/06:30am 5.9 0.4 0.5 68 2.1 NW 19 24 10 13 1013.0 1013.0 0.0
23/06:00am 6.4 0.9 0.5 66 2.3 NW 19 24 10 13 1012.9 1012.9 0.0
23/05:30am 5.8 0.7 0.6 69 2.0 NW 17 22 9 12 1012.6 1012.6 0.0
23/05:00am 5.9 1.1 0.5 68 2.1 NW 15 24 8 13 1012.7 1012.7 0.0
23/04:30am 5.8 0.1 0.4 68 2.1 NW 20 28 11 15 1012.6 1012.6 0.0
23/04:00am 5.9 1.1 0.3 67 2.2 NW 15 20 8 11 1012.6 1012.6 0.0
23/03:30am 5.8 0.6 0.4 68 2.1 NW 17 24 9 13 1012.4 1012.4 0.0
23/03:00am 5.9 1.5 0.3 67 2.2 NW 13 20 7 11 1012.6 1012.6 0.0
23/02:30am 6.2 1.8 0.1 65 2.4 NW 13 24 7 13 1012.8 1012.8 0.0
23/02:00am 6.4 0.8 0.1 64 2.4 NW 19 28 10 15 1012.9 1012.9 0.0
23/01:30am 6.3 1.1 -0.2 63 2.5 NW 17 26 9 14 1012.9 1012.9 0.0
23/01:00am 6.8 1.9 -0.6 59 2.8 NW 15 24 8 13 1012.8 1012.8 0.0
23/12:30am 6.8 1.9 -0.6 59 2.8 NW 15 20 8 11 1012.8 1012.8 0.0
23/12:00am 7.0 1.7 -0.4 59 2.9 NW 17 26 9 14 1012.8 1012.8 0.0
 
Date/Time
EST
Temp
°C
App
Temp
°C
Dew
Point
°C
Rel
Hum
%
Delta-T
°C
Wind Press
QNH
hPa
Press
MSL
hPa
Rain since
9am
mm
Dir  Spd
km/h
Gust
km/h
Spd
kts
Gust
kts
22/11:30pm 7.0 2.1 -0.4 59 2.8 NW 15 22 8 12 1012.6 1012.6 0.0
22/11:00pm 7.0 1.4 -0.2 60 2.8 NW 19 24 10 13 1012.6 1012.6 0.0
22/10:30pm 6.8 1.6 0.0 62 2.6 WNW 17 22 9 12 1012.7 1012.7 0.0
22/10:00pm 6.9 1.4 0.6 64 2.5 WNW 19 22 10 12 1012.6 1012.6 0.0
22/09:30pm 7.4 2.7 0.6 62 2.7 NW 15 20 8 11 1012.4 1012.4 0.0
22/09:00pm 7.8 2.3 0.5 60 2.9 WNW 19 26 10 14 1012.1 1012.1 0.0
22/08:30pm 7.8 1.8 0.8 61 2.8 WNW 22 28 12 15 1011.7 1011.7 0.0
22/08:00pm 7.0 3.9 1.1 66 2.4 SW 7 17 4 9 1011.6 1011.6 0.0
22/07:30pm 7.6 5.6 2.1 68 2.3 SW 2 6 1 3 1011.4 1011.4 0.0
22/07:00pm 7.6 5.7 2.9 72 2.0 SW 2 6 1 3 1011.1 1011.1 0.0
22/06:30pm 7.6 5.7 2.9 72 2.0 SW 2 4 1 2 1010.8 1010.8 0.0
22/06:00pm 9.1 6.9 3.5 68 2.4 SW 4 7 2 4 1010.6 1010.6 0.0
22/05:30pm 9.1 6.4 3.9 70 2.3 SW 7 9 4 5 1010.3 1010.3 0.0
22/05:00pm 9.7 7.9 3.2 64 2.8 SW 2 2 1 1 1010.0 1010.0 0.0
22/04:30pm 9.4 7.0 4.4 71 2.2 SW 6 7 3 4 1009.8 1009.8 0.0
22/04:00pm 10.8 6.6 4.0 63 3.0 SW 15 17 8 9 1009.6 1009.6 0.0
22/03:30pm 10.5 7.5 4.0 64 2.9 WSW 9 11 5 6 1009.4 1009.4 0.0
22/03:00pm 11.8 8.5 2.3 52 4.1 SW 9 9 5 5 1009.4 1009.4 0.0
22/02:30pm 11.1 7.2 3.6 60 3.3 SW 13 15 7 8 1009.4 1009.4 0.0
22/02:00pm 10.8 6.5 3.1 59 3.4 SW 15 20 8 11 1009.4 1009.4 0.0
22/01:30pm 10.6 5.2 2.7 58 3.4 WSW 20 28 11 15 1009.3 1009.3 0.0
22/01:00pm 11.9 6.3 1.5 49 4.4 WNW 20 28 11 15 1009.4 1009.4 0.0
22/12:30pm 11.2 5.8 1.2 50 4.2 WNW 19 28 10 15 1009.7 1009.7 0.0
22/12:00pm 11.4 6.4 1.4 50 4.2 WNW 17 26 9 14 1010.0 1010.0 0.0
22/11:30am 10.0 5.0 1.1 54 3.7 WNW 17 24 9 13 1010.2 1010.2 0.0
22/11:00am 11.2 5.8 1.5 51 4.1 NW 19 28 10 15 1010.4 1010.4 0.0
22/10:30am 10.4 4.7 0.7 51 4.0 WNW 20 30 11 16 1010.3 1010.3 0.0
22/10:00am 10.7 5.0 0.4 49 4.2 WNW 20 26 11 14 1010.3 1010.3 0.0
22/09:30am 9.6 3.5 0.5 53 3.7 WNW 22 32 12 17 1010.2 1010.2 0.0
22/09:00am 8.9 3.2 0.4 55 3.4 NW 20 32 11 17 1010.1 1010.1 0.0
22/08:30am 7.8 2.7 0.5 60 2.9 NW 17 28 9 15 1009.9 1009.9 0.0
22/08:00am 6.8 2.0 0.5 64 2.5 WNW 15 26 8 14 1010.1 1010.1 0.0
22/07:30am 6.2 1.4 0.3 66 2.3 WNW 15 20 8 11 1009.9 1009.9 0.0
22/07:00am 6.4 0.7 0.5 66 2.3 NW 20 28 11 15 1009.4 1009.4 0.0
22/06:30am 5.8 0.6 0.4 68 2.1 NW 17 24 9 13 1009.4 1009.4 0.0
22/06:00am 6.0 2.4 0.3 67 2.2 NNW 9 15 5 8 1009.2 1009.2 0.0
22/05:30am 6.2 3.1 0.1 65 2.4 NW 6 13 3 7 1009.1 1009.1 0.0
22/05:00am 6.2 3.1 0.1 65 2.4 NW 6 9 3 5 1009.2 1009.2 0.0
22/04:30am 5.7 1.6 -0.1 66 2.2 NW 11 13 6 7 1009.3 1009.3 0.0
22/04:00am 5.9 0.7 0.0 66 2.3 NW 17 22 9 12 1009.0 1009.0 0.0
22/03:30am 6.3 1.9 0.2 65 2.4 NW 13 24 7 13 1008.9 1008.9 0.0
22/03:00am 6.5 1.0 0.6 66 2.3 NW 19 26 10 14 1009.1 1009.1 0.0
22/02:30am 6.7 1.6 0.6 65 2.4 NW 17 24 9 13 1009.3 1009.3 0.0
22/02:00am 6.7 1.9 0.4 64 2.5 NW 15 22 8 12 1009.4 1009.4 0.0
22/01:30am 6.6 1.8 0.3 64 2.5 NW 15 22 8 12 1009.4 1009.4 0.0
22/01:00am 6.5 1.3 0.0 63 2.5 NW 17 20 9 11 1009.2 1009.2 0.0
22/12:30am 7.2 1.4 0.2 61 2.7 WNW 20 28 11 15 1008.9 1008.9 0.0
22/12:00am 7.0 1.5 0.7 64 2.5 NW 19 26 10 14 1008.9 1008.9 0.0
 
Date/Time
EST
Temp
°C
App
Temp
°C
Dew
Point
°C
Rel
Hum
%
Delta-T
°C
Wind Press
QNH
hPa
Press
MSL
hPa
Rain since
9am
mm
Dir  Spd
km/h
Gust
km/h
Spd
kts
Gust
kts
21/11:30pm 7.2 2.5 0.9 64 2.5 NW 15 24 8 13 1008.9 1008.9 0.0
21/11:00pm 7.5 1.1 1.1 64 2.6 WNW 24 33 13 18 1008.4 1008.4 0.0
21/10:30pm 7.4 2.0 1.3 65 2.5 W 19 32 10 17 1008.5 1008.5 0.0
21/10:00pm 7.5 1.6 1.4 65 2.5 WNW 22 32 12 17 1008.5 1008.5 0.0
21/09:30pm 7.7 1.8 1.5 65 2.5 NW 22 30 12 16 1008.5 1008.5 0.0
21/09:00pm 7.8 2.9 1.9 66 2.4 NW 17 24 9 13 1008.5 1008.5 0.0
21/08:30pm 8.2 2.3 2.0 65 2.6 NW 22 30 12 16 1008.2 1008.2 0.0
21/08:00pm 8.3 3.0 1.7 63 2.7 NW 19 24 10 13 1007.8 1007.8 0.0
21/07:30pm 9.0 4.8 1.9 61 3.0 NW 13 19 7 10 1007.8 1007.8 0.0
21/07:00pm 9.2 5.0 1.6 59 3.2 WNW 13 19 7 10 1007.5 1007.5 0.0

Latest Capital City Observations: Canberra | Sydney | Melbourne | Brisbane | Adelaide | Perth | Hobart | Darwin

Other Formats:

Comma delimited format used in spreadsheet applications
http://www.bom.gov.au/fwo/IDT60901/IDT60901.94951.axf

JavaScript Object Notation format (JSON) in row-major order
http://www.bom.gov.au/fwo/IDT60901/IDT60901.94951.json